sensor_id;sensor_type;location;lat;lon;timestamp;P1;durP1;ratioP1;P2;durP2;ratioP2
7517;SDS011;3800;48.922;9.444;2023-11-18T00:00:53;7.70;;;7.00;;
7517;SDS011;3800;48.922;9.444;2023-11-18T00:03:22;7.00;;;6.30;;
7517;SDS011;3800;48.922;9.444;2023-11-18T00:05:50;8.23;;;7.40;;
7517;SDS011;3800;48.922;9.444;2023-11-18T00:08:18;7.50;;;6.57;;
7517;SDS011;3800;48.922;9.444;2023-11-18T00:10:46;7.10;;;6.47;;
7517;SDS011;3800;48.922;9.444;2023-11-18T00:13:15;7.13;;;6.47;;
7517;SDS011;3800;48.922;9.444;2023-11-18T00:15:43;7.33;;;6.63;;
7517;SDS011;3800;48.922;9.444;2023-11-18T00:18:11;7.90;;;7.10;;
7517;SDS011;3800;48.922;9.444;2023-11-18T00:20:40;8.07;;;6.80;;
7517;SDS011;3800;48.922;9.444;2023-11-18T00:23:08;7.30;;;6.60;;
7517;SDS011;3800;48.922;9.444;2023-11-18T00:25:37;7.43;;;6.70;;
7517;SDS011;3800;48.922;9.444;2023-11-18T00:28:05;7.60;;;6.90;;
7517;SDS011;3800;48.922;9.444;2023-11-18T00:30:33;7.57;;;6.80;;
7517;SDS011;3800;48.922;9.444;2023-11-18T00:33:02;10.23;;;7.97;;
7517;SDS011;3800;48.922;9.444;2023-11-18T00:35:30;8.83;;;7.70;;
7517;SDS011;3800;48.922;9.444;2023-11-18T00:37:58;8.67;;;7.77;;
7517;SDS011;3800;48.922;9.444;2023-11-18T00:40:26;8.53;;;7.57;;
7517;SDS011;3800;48.922;9.444;2023-11-18T00:42:56;8.60;;;7.70;;
7517;SDS011;3800;48.922;9.444;2023-11-18T00:45:24;9.37;;;7.87;;
7517;SDS011;3800;48.922;9.444;2023-11-18T00:47:53;8.40;;;7.60;;
7517;SDS011;3800;48.922;9.444;2023-11-18T00:50:23;7.63;;;6.93;;
7517;SDS011;3800;48.922;9.444;2023-11-18T00:52:51;8.93;;;8.03;;
7517;SDS011;3800;48.922;9.444;2023-11-18T00:55:20;8.00;;;7.30;;
7517;SDS011;3800;48.922;9.444;2023-11-18T00:57:49;9.20;;;7.40;;
7517;SDS011;3800;48.922;9.444;2023-11-18T01:00:17;8.63;;;7.83;;
7517;SDS011;3800;48.922;9.444;2023-11-18T01:02:45;8.97;;;8.07;;
7517;SDS011;3800;48.922;9.444;2023-11-18T01:05:15;8.43;;;7.53;;
7517;SDS011;3800;48.922;9.444;2023-11-18T01:07:43;9.17;;;8.27;;
7517;SDS011;3800;48.922;9.444;2023-11-18T01:10:12;9.50;;;8.60;;
7517;SDS011;3800;48.922;9.444;2023-11-18T01:12:41;9.20;;;8.40;;
7517;SDS011;3800;48.922;9.444;2023-11-18T01:15:11;8.40;;;7.60;;
7517;SDS011;3800;48.922;9.444;2023-11-18T01:17:40;9.33;;;8.43;;
7517;SDS011;3800;48.922;9.444;2023-11-18T01:20:11;9.27;;;8.23;;
7517;SDS011;3800;48.922;9.444;2023-11-18T01:22:39;9.50;;;8.60;;
7517;SDS011;3800;48.922;9.444;2023-11-18T01:25:07;9.50;;;7.90;;
7517;SDS011;3800;48.922;9.444;2023-11-18T01:27:36;9.53;;;8.63;;
7517;SDS011;3800;48.922;9.444;2023-11-18T01:30:05;9.10;;;8.20;;
7517;SDS011;3800;48.922;9.444;2023-11-18T01:32:34;9.70;;;8.80;;
7517;SDS011;3800;48.922;9.444;2023-11-18T01:35:02;8.90;;;8.00;;
7517;SDS011;3800;48.922;9.444;2023-11-18T01:37:32;9.03;;;8.23;;
7517;SDS011;3800;48.922;9.444;2023-11-18T01:40:01;9.27;;;8.37;;
7517;SDS011;3800;48.922;9.444;2023-11-18T01:42:33;8.60;;;7.80;;
7517;SDS011;3800;48.922;9.444;2023-11-18T01:45:01;9.30;;;8.40;;
7517;SDS011;3800;48.922;9.444;2023-11-18T01:47:31;9.10;;;8.20;;
7517;SDS011;3800;48.922;9.444;2023-11-18T01:50:00;9.20;;;8.23;;
7517;SDS011;3800;48.922;9.444;2023-11-18T01:52:28;8.70;;;7.83;;
7517;SDS011;3800;48.922;9.444;2023-11-18T01:54:57;9.20;;;8.30;;
7517;SDS011;3800;48.922;9.444;2023-11-18T01:57:25;8.80;;;8.00;;
7517;SDS011;3800;48.922;9.444;2023-11-18T01:59:54;8.97;;;7.70;;
7517;SDS011;3800;48.922;9.444;2023-11-18T02:02:23;8.20;;;7.50;;
7517;SDS011;3800;48.922;9.444;2023-11-18T02:04:53;8.90;;;7.60;;
7517;SDS011;3800;48.922;9.444;2023-11-18T02:07:21;8.30;;;7.50;;
7517;SDS011;3800;48.922;9.444;2023-11-18T02:09:50;9.73;;;8.77;;
7517;SDS011;3800;48.922;9.444;2023-11-18T02:12:21;9.03;;;8.23;;
7517;SDS011;3800;48.922;9.444;2023-11-18T02:15:06;9.33;;;8.43;;
7517;SDS011;3800;48.922;9.444;2023-11-18T02:17:37;9.77;;;8.63;;
7517;SDS011;3800;48.922;9.444;2023-11-18T02:20:05;10.80;;;8.33;;
7517;SDS011;3800;48.922;9.444;2023-11-18T02:22:34;8.77;;;7.97;;
7517;SDS011;3800;48.922;9.444;2023-11-18T02:25:02;8.87;;;8.00;;
7517;SDS011;3800;48.922;9.444;2023-11-18T02:27:32;8.97;;;8.07;;
7517;SDS011;3800;48.922;9.444;2023-11-18T02:30:02;8.67;;;7.87;;
7517;SDS011;3800;48.922;9.444;2023-11-18T02:32:32;9.40;;;8.50;;
7517;SDS011;3800;48.922;9.444;2023-11-18T02:35:04;8.07;;;7.27;;
7517;SDS011;3800;48.922;9.444;2023-11-18T02:37:33;9.33;;;8.33;;
7517;SDS011;3800;48.922;9.444;2023-11-18T02:40:03;8.47;;;7.67;;
7517;SDS011;3800;48.922;9.444;2023-11-18T02:42:46;9.23;;;8.33;;
7517;SDS011;3800;48.922;9.444;2023-11-18T02:45:15;9.00;;;8.10;;
7517;SDS011;3800;48.922;9.444;2023-11-18T02:47:44;10.90;;;8.80;;
7517;SDS011;3800;48.922;9.444;2023-11-18T02:50:14;14.00;;;11.37;;
7517;SDS011;3800;48.922;9.444;2023-11-18T02:52:43;21.93;;;12.43;;
7517;SDS011;3800;48.922;9.444;2023-11-18T02:55:11;12.50;;;10.07;;
7517;SDS011;3800;48.922;9.444;2023-11-18T02:57:39;11.23;;;9.07;;
7517;SDS011;3800;48.922;9.444;2023-11-18T03:00:07;9.83;;;8.73;;
7517;SDS011;3800;48.922;9.444;2023-11-18T03:02:39;9.30;;;8.40;;
7517;SDS011;3800;48.922;9.444;2023-11-18T03:05:08;8.10;;;7.30;;
7517;SDS011;3800;48.922;9.444;2023-11-18T03:07:38;9.13;;;7.90;;
7517;SDS011;3800;48.922;9.444;2023-11-18T03:10:06;11.13;;;7.43;;
7517;SDS011;3800;48.922;9.444;2023-11-18T03:12:40;7.90;;;7.20;;
7517;SDS011;3800;48.922;9.444;2023-11-18T03:15:09;8.93;;;7.57;;
7517;SDS011;3800;48.922;9.444;2023-11-18T03:17:37;8.43;;;7.30;;
7517;SDS011;3800;48.922;9.444;2023-11-18T03:20:07;8.37;;;7.57;;
7517;SDS011;3800;48.922;9.444;2023-11-18T03:22:36;8.00;;;7.20;;
7517;SDS011;3800;48.922;9.444;2023-11-18T03:25:05;8.00;;;7.23;;
7517;SDS011;3800;48.922;9.444;2023-11-18T03:27:33;8.40;;;7.60;;
7517;SDS011;3800;48.922;9.444;2023-11-18T03:30:02;8.63;;;7.73;;
7517;SDS011;3800;48.922;9.444;2023-11-18T03:32:32;8.77;;;7.90;;
7517;SDS011;3800;48.922;9.444;2023-11-18T03:35:02;8.90;;;8.10;;
7517;SDS011;3800;48.922;9.444;2023-11-18T03:37:31;8.57;;;7.77;;
7517;SDS011;3800;48.922;9.444;2023-11-18T03:40:01;9.93;;;8.73;;
7517;SDS011;3800;48.922;9.444;2023-11-18T03:42:30;9.10;;;8.20;;
7517;SDS011;3800;48.922;9.444;2023-11-18T03:44:58;9.80;;;8.90;;
7517;SDS011;3800;48.922;9.444;2023-11-18T03:47:28;8.63;;;7.70;;
7517;SDS011;3800;48.922;9.444;2023-11-18T03:49:57;9.30;;;8.23;;
7517;SDS011;3800;48.922;9.444;2023-11-18T03:52:25;9.53;;;8.63;;
7517;SDS011;3800;48.922;9.444;2023-11-18T03:54:54;9.43;;;8.53;;
7517;SDS011;3800;48.922;9.444;2023-11-18T03:57:22;10.30;;;9.30;;
7517;SDS011;3800;48.922;9.444;2023-11-18T03:59:50;10.23;;;9.23;;
7517;SDS011;3800;48.922;9.444;2023-11-18T04:02:19;9.90;;;8.90;;
7517;SDS011;3800;48.922;9.444;2023-11-18T04:04:48;10.13;;;9.13;;
7517;SDS011;3800;48.922;9.444;2023-11-18T04:07:16;10.40;;;9.40;;
7517;SDS011;3800;48.922;9.444;2023-11-18T04:09:45;9.63;;;8.73;;
7517;SDS011;3800;48.922;9.444;2023-11-18T04:12:13;9.83;;;8.93;;
7517;SDS011;3800;48.922;9.444;2023-11-18T04:14:42;8.80;;;8.00;;
7517;SDS011;3800;48.922;9.444;2023-11-18T04:17:11;10.77;;;9.70;;
7517;SDS011;3800;48.922;9.444;2023-11-18T04:19:40;9.87;;;8.97;;
7517;SDS011;3800;48.922;9.444;2023-11-18T04:22:08;9.83;;;8.90;;
7517;SDS011;3800;48.922;9.444;2023-11-18T04:24:37;10.03;;;8.93;;
7517;SDS011;3800;48.922;9.444;2023-11-18T04:27:06;10.23;;;9.23;;
7517;SDS011;3800;48.922;9.444;2023-11-18T04:29:34;10.13;;;9.13;;
7517;SDS011;3800;48.922;9.444;2023-11-18T04:32:03;10.10;;;9.10;;
7517;SDS011;3800;48.922;9.444;2023-11-18T04:34:31;9.63;;;8.73;;
7517;SDS011;3800;48.922;9.444;2023-11-18T04:37:05;10.47;;;9.37;;
7517;SDS011;3800;48.922;9.444;2023-11-18T04:39:34;9.40;;;8.43;;
7517;SDS011;3800;48.922;9.444;2023-11-18T04:42:04;10.13;;;9.13;;
7517;SDS011;3800;48.922;9.444;2023-11-18T04:44:32;9.33;;;8.33;;
7517;SDS011;3800;48.922;9.444;2023-11-18T04:47:01;9.27;;;8.37;;
7517;SDS011;3800;48.922;9.444;2023-11-18T04:49:30;9.53;;;8.63;;
7517;SDS011;3800;48.922;9.444;2023-11-18T04:51:58;9.50;;;8.60;;
7517;SDS011;3800;48.922;9.444;2023-11-18T04:54:26;8.70;;;7.90;;
7517;SDS011;3800;48.922;9.444;2023-11-18T04:56:55;9.87;;;8.97;;
7517;SDS011;3800;48.922;9.444;2023-11-18T04:59:24;8.70;;;7.90;;
7517;SDS011;3800;48.922;9.444;2023-11-18T05:01:52;10.40;;;8.40;;
7517;SDS011;3800;48.922;9.444;2023-11-18T05:04:21;9.23;;;8.33;;
7517;SDS011;3800;48.922;9.444;2023-11-18T05:06:51;9.83;;;8.93;;
7517;SDS011;3800;48.922;9.444;2023-11-18T05:09:19;9.30;;;8.17;;
7517;SDS011;3800;48.922;9.444;2023-11-18T05:11:47;10.77;;;9.23;;
7517;SDS011;3800;48.922;9.444;2023-11-18T05:14:16;8.90;;;8.10;;
7517;SDS011;3800;48.922;9.444;2023-11-18T05:16:45;8.90;;;8.00;;
7517;SDS011;3800;48.922;9.444;2023-11-18T05:19:12;9.13;;;8.30;;
7517;SDS011;3800;48.922;9.444;2023-11-18T05:21:41;8.67;;;7.77;;
7517;SDS011;3800;48.922;9.444;2023-11-18T05:24:10;8.37;;;7.57;;
7517;SDS011;3800;48.922;9.444;2023-11-18T05:26:39;8.93;;;7.70;;
7517;SDS011;3800;48.922;9.444;2023-11-18T05:29:07;9.00;;;8.20;;
7517;SDS011;3800;48.922;9.444;2023-11-18T05:31:35;9.50;;;8.53;;
7517;SDS011;3800;48.922;9.444;2023-11-18T05:34:04;8.27;;;7.40;;
7517;SDS011;3800;48.922;9.444;2023-11-18T05:36:34;10.13;;;8.10;;
7517;SDS011;3800;48.922;9.444;2023-11-18T05:39:03;8.90;;;7.77;;
7517;SDS011;3800;48.922;9.444;2023-11-18T05:41:32;8.40;;;7.60;;
7517;SDS011;3800;48.922;9.444;2023-11-18T05:44:01;8.63;;;6.83;;
7517;SDS011;3800;48.922;9.444;2023-11-18T05:46:30;7.03;;;6.33;;
7517;SDS011;3800;48.922;9.444;2023-11-18T05:49:01;9.23;;;7.40;;
7517;SDS011;3800;48.922;9.444;2023-11-18T05:51:27;7.90;;;7.10;;
7517;SDS011;3800;48.922;9.444;2023-11-18T05:53:59;8.33;;;7.53;;
7517;SDS011;3800;48.922;9.444;2023-11-18T05:56:27;10.80;;;7.93;;
7517;SDS011;3800;48.922;9.444;2023-11-18T05:58:55;8.70;;;7.33;;
7517;SDS011;3800;48.922;9.444;2023-11-18T06:01:24;7.73;;;7.03;;
7517;SDS011;3800;48.922;9.444;2023-11-18T06:03:53;7.30;;;6.27;;
7517;SDS011;3800;48.922;9.444;2023-11-18T06:06:21;7.67;;;6.97;;
7517;SDS011;3800;48.922;9.444;2023-11-18T06:08:50;7.83;;;6.87;;
7517;SDS011;3800;48.922;9.444;2023-11-18T06:11:19;8.17;;;7.33;;
7517;SDS011;3800;48.922;9.444;2023-11-18T06:13:49;8.33;;;7.30;;
7517;SDS011;3800;48.922;9.444;2023-11-18T06:16:19;7.63;;;6.93;;
7517;SDS011;3800;48.922;9.444;2023-11-18T06:18:47;7.83;;;7.00;;
7517;SDS011;3800;48.922;9.444;2023-11-18T06:21:16;8.10;;;6.77;;
7517;SDS011;3800;48.922;9.444;2023-11-18T06:23:46;7.30;;;6.60;;
7517;SDS011;3800;48.922;9.444;2023-11-18T06:26:15;7.60;;;6.43;;
7517;SDS011;3800;48.922;9.444;2023-11-18T06:28:44;7.33;;;6.63;;
7517;SDS011;3800;48.922;9.444;2023-11-18T06:31:12;7.60;;;6.80;;
7517;SDS011;3800;48.922;9.444;2023-11-18T06:33:42;6.97;;;6.27;;
7517;SDS011;3800;48.922;9.444;2023-11-18T06:36:17;7.17;;;6.47;;
7517;SDS011;3800;48.922;9.444;2023-11-18T06:38:49;6.20;;;5.60;;
7517;SDS011;3800;48.922;9.444;2023-11-18T06:41:18;6.43;;;5.93;;
7517;SDS011;3800;48.922;9.444;2023-11-18T06:43:47;6.00;;;5.50;;
7517;SDS011;3800;48.922;9.444;2023-11-18T06:46:19;6.37;;;5.77;;
7517;SDS011;3800;48.922;9.444;2023-11-18T06:48:48;6.43;;;5.77;;
7517;SDS011;3800;48.922;9.444;2023-11-18T06:51:16;6.80;;;6.10;;
7517;SDS011;3800;48.922;9.444;2023-11-18T06:53:47;6.67;;;5.97;;
7517;SDS011;3800;48.922;9.444;2023-11-18T06:56:16;6.03;;;5.43;;
7517;SDS011;3800;48.922;9.444;2023-11-18T06:58:44;6.00;;;5.40;;
7517;SDS011;3800;48.922;9.444;2023-11-18T07:01:13;11.77;;;8.47;;
7517;SDS011;3800;48.922;9.444;2023-11-18T07:03:42;10.60;;;8.60;;
7517;SDS011;3800;48.922;9.444;2023-11-18T07:06:11;9.40;;;7.50;;
7517;SDS011;3800;48.922;9.444;2023-11-18T07:08:39;8.53;;;7.43;;
7517;SDS011;3800;48.922;9.444;2023-11-18T07:11:09;58.70;;;31.53;;
7517;SDS011;3800;48.922;9.444;2023-11-18T07:13:37;52.37;;;34.67;;
7517;SDS011;3800;48.922;9.444;2023-11-18T07:16:06;25.30;;;18.77;;
7517;SDS011;3800;48.922;9.444;2023-11-18T07:18:35;22.20;;;16.53;;
7517;SDS011;3800;48.922;9.444;2023-11-18T07:21:03;17.20;;;13.97;;
7517;SDS011;3800;48.922;9.444;2023-11-18T07:23:32;14.87;;;11.63;;
7517;SDS011;3800;48.922;9.444;2023-11-18T07:26:02;10.10;;;9.10;;
7517;SDS011;3800;48.922;9.444;2023-11-18T07:28:32;8.03;;;7.23;;
7517;SDS011;3800;48.922;9.444;2023-11-18T07:31:00;6.67;;;6.03;;
7517;SDS011;3800;48.922;9.444;2023-11-18T07:33:28;6.80;;;6.20;;
7517;SDS011;3800;48.922;9.444;2023-11-18T07:35:59;7.73;;;6.63;;
7517;SDS011;3800;48.922;9.444;2023-11-18T07:38:28;8.87;;;7.50;;
7517;SDS011;3800;48.922;9.444;2023-11-18T07:40:56;10.20;;;8.20;;
7517;SDS011;3800;48.922;9.444;2023-11-18T07:43:24;9.73;;;8.73;;
7517;SDS011;3800;48.922;9.444;2023-11-18T07:45:52;9.60;;;8.13;;
7517;SDS011;3800;48.922;9.444;2023-11-18T07:48:21;10.23;;;9.23;;
7517;SDS011;3800;48.922;9.444;2023-11-18T07:50:50;9.83;;;8.83;;
7517;SDS011;3800;48.922;9.444;2023-11-18T07:53:18;10.00;;;9.00;;
7517;SDS011;3800;48.922;9.444;2023-11-18T07:55:47;9.77;;;8.77;;
7517;SDS011;3800;48.922;9.444;2023-11-18T07:58:15;10.30;;;8.83;;
7517;SDS011;3800;48.922;9.444;2023-11-18T08:00:44;9.43;;;8.13;;
7517;SDS011;3800;48.922;9.444;2023-11-18T08:03:13;8.87;;;7.97;;
7517;SDS011;3800;48.922;9.444;2023-11-18T08:05:42;9.20;;;8.30;;
7517;SDS011;3800;48.922;9.444;2023-11-18T08:08:12;8.00;;;7.20;;
7517;SDS011;3800;48.922;9.444;2023-11-18T08:10:41;8.40;;;7.60;;
7517;SDS011;3800;48.922;9.444;2023-11-18T08:13:10;8.53;;;7.70;;
7517;SDS011;3800;48.922;9.444;2023-11-18T08:15:38;7.70;;;7.00;;
7517;SDS011;3800;48.922;9.444;2023-11-18T08:18:07;7.67;;;6.97;;
7517;SDS011;3800;48.922;9.444;2023-11-18T08:20:35;7.27;;;6.57;;
7517;SDS011;3800;48.922;9.444;2023-11-18T08:23:03;8.57;;;7.13;;
7517;SDS011;3800;48.922;9.444;2023-11-18T08:25:32;8.20;;;7.33;;
7517;SDS011;3800;48.922;9.444;2023-11-18T08:28:02;7.30;;;6.60;;
7517;SDS011;3800;48.922;9.444;2023-11-18T08:30:31;7.43;;;6.67;;
7517;SDS011;3800;48.922;9.444;2023-11-18T08:33:02;6.50;;;5.90;;
7517;SDS011;3800;48.922;9.444;2023-11-18T08:35:31;5.83;;;5.33;;
7517;SDS011;3800;48.922;9.444;2023-11-18T08:38:00;5.50;;;4.90;;
7517;SDS011;3800;48.922;9.444;2023-11-18T08:40:29;5.90;;;4.57;;
7517;SDS011;3800;48.922;9.444;2023-11-18T08:42:58;5.13;;;4.73;;
7517;SDS011;3800;48.922;9.444;2023-11-18T08:45:28;5.00;;;4.50;;
7517;SDS011;3800;48.922;9.444;2023-11-18T08:47:56;5.27;;;4.77;;
7517;SDS011;3800;48.922;9.444;2023-11-18T08:50:25;4.57;;;4.17;;
7517;SDS011;3800;48.922;9.444;2023-11-18T08:52:55;5.07;;;4.60;;
7517;SDS011;3800;48.922;9.444;2023-11-18T08:55:27;5.77;;;4.37;;
7517;SDS011;3800;48.922;9.444;2023-11-18T08:58:00;5.13;;;4.63;;
7517;SDS011;3800;48.922;9.444;2023-11-18T09:00:31;4.80;;;4.33;;
7517;SDS011;3800;48.922;9.444;2023-11-18T09:03:05;5.87;;;4.67;;
7517;SDS011;3800;48.922;9.444;2023-11-18T09:05:34;5.60;;;4.13;;
7517;SDS011;3800;48.922;9.444;2023-11-18T09:08:03;4.57;;;4.17;;
7517;SDS011;3800;48.922;9.444;2023-11-18T09:10:32;4.63;;;4.13;;
7517;SDS011;3800;48.922;9.444;2023-11-18T09:13:00;4.80;;;4.40;;
7517;SDS011;3800;48.922;9.444;2023-11-18T09:15:28;7.43;;;5.30;;
7517;SDS011;3800;48.922;9.444;2023-11-18T09:17:57;5.43;;;4.33;;
7517;SDS011;3800;48.922;9.444;2023-11-18T09:20:25;4.97;;;4.50;;
7517;SDS011;3800;48.922;9.444;2023-11-18T09:22:54;5.53;;;3.93;;
7517;SDS011;3800;48.922;9.444;2023-11-18T09:25:22;3.90;;;3.50;;
7517;SDS011;3800;48.922;9.444;2023-11-18T09:27:51;4.97;;;4.03;;
7517;SDS011;3800;48.922;9.444;2023-11-18T09:30:21;4.23;;;3.70;;
7517;SDS011;3800;48.922;9.444;2023-11-18T09:32:50;4.03;;;3.63;;
7517;SDS011;3800;48.922;9.444;2023-11-18T09:35:20;4.10;;;3.70;;
7517;SDS011;3800;48.922;9.444;2023-11-18T09:37:48;4.70;;;3.90;;
7517;SDS011;3800;48.922;9.444;2023-11-18T09:40:16;4.63;;;3.53;;
7517;SDS011;3800;48.922;9.444;2023-11-18T09:42:44;3.73;;;3.43;;
7517;SDS011;3800;48.922;9.444;2023-11-18T09:45:13;4.23;;;3.50;;
7517;SDS011;3800;48.922;9.444;2023-11-18T09:47:42;4.03;;;3.23;;
7517;SDS011;3800;48.922;9.444;2023-11-18T09:50:10;3.17;;;2.80;;
7517;SDS011;3800;48.922;9.444;2023-11-18T09:52:41;3.53;;;3.10;;
7517;SDS011;3800;48.922;9.444;2023-11-18T09:55:09;5.00;;;3.00;;
7517;SDS011;3800;48.922;9.444;2023-11-18T09:57:37;3.13;;;2.80;;
7517;SDS011;3800;48.922;9.444;2023-11-18T10:00:06;3.97;;;2.70;;
7517;SDS011;3800;48.922;9.444;2023-11-18T10:02:53;3.63;;;2.60;;
7517;SDS011;3800;48.922;9.444;2023-11-18T10:05:22;5.00;;;3.40;;
7517;SDS011;3800;48.922;9.444;2023-11-18T10:07:50;3.50;;;2.90;;
7517;SDS011;3800;48.922;9.444;2023-11-18T10:10:19;3.73;;;2.80;;
7517;SDS011;3800;48.922;9.444;2023-11-18T10:12:48;2.87;;;2.60;;
7517;SDS011;3800;48.922;9.444;2023-11-18T10:15:20;2.80;;;2.57;;
7517;SDS011;3800;48.922;9.444;2023-11-18T10:17:47;4.73;;;2.83;;
7517;SDS011;3800;48.922;9.444;2023-11-18T10:20:21;3.97;;;2.67;;
7517;SDS011;3800;48.922;9.444;2023-11-18T10:22:49;4.10;;;2.17;;
7517;SDS011;3800;48.922;9.444;2023-11-18T10:25:23;3.10;;;2.30;;
7517;SDS011;3800;48.922;9.444;2023-11-18T10:27:52;2.53;;;2.33;;
7517;SDS011;3800;48.922;9.444;2023-11-18T10:30:20;6.17;;;2.63;;
7517;SDS011;3800;48.922;9.444;2023-11-18T10:35:27;2.43;;;2.20;;
7517;SDS011;3800;48.922;9.444;2023-11-18T10:37:56;3.07;;;2.57;;
7517;SDS011;3800;48.922;9.444;2023-11-18T10:40:25;3.10;;;2.80;;
7517;SDS011;3800;48.922;9.444;2023-11-18T10:42:53;2.50;;;2.17;;
7517;SDS011;3800;48.922;9.444;2023-11-18T10:45:23;4.40;;;2.60;;
7517;SDS011;3800;48.922;9.444;2023-11-18T10:47:53;2.30;;;2.10;;
7517;SDS011;3800;48.922;9.444;2023-11-18T10:50:20;4.33;;;2.17;;
7517;SDS011;3800;48.922;9.444;2023-11-18T10:52:49;2.37;;;1.83;;
7517;SDS011;3800;48.922;9.444;2023-11-18T10:55:18;3.73;;;1.90;;
7517;SDS011;3800;48.922;9.444;2023-11-18T10:57:47;3.30;;;1.97;;
7517;SDS011;3800;48.922;9.444;2023-11-18T11:00:15;2.40;;;2.20;;
7517;SDS011;3800;48.922;9.444;2023-11-18T11:02:44;1.80;;;1.67;;
7517;SDS011;3800;48.922;9.444;2023-11-18T11:05:12;2.10;;;1.70;;
7517;SDS011;3800;48.922;9.444;2023-11-18T11:07:43;2.00;;;1.80;;
7517;SDS011;3800;48.922;9.444;2023-11-18T11:10:12;3.83;;;1.90;;
7517;SDS011;3800;48.922;9.444;2023-11-18T11:12:43;2.60;;;1.67;;
7517;SDS011;3800;48.922;9.444;2023-11-18T11:15:12;2.67;;;1.80;;
7517;SDS011;3800;48.922;9.444;2023-11-18T11:17:42;2.20;;;2.00;;
7517;SDS011;3800;48.922;9.444;2023-11-18T11:20:11;2.63;;;2.13;;
7517;SDS011;3800;48.922;9.444;2023-11-18T11:23:00;2.20;;;1.70;;
7517;SDS011;3800;48.922;9.444;2023-11-18T11:25:49;2.37;;;1.73;;
7517;SDS011;3800;48.922;9.444;2023-11-18T11:28:17;2.10;;;1.70;;
7517;SDS011;3800;48.922;9.444;2023-11-18T11:30:46;3.57;;;1.80;;
7517;SDS011;3800;48.922;9.444;2023-11-18T11:33:22;2.27;;;1.83;;
7517;SDS011;3800;48.922;9.444;2023-11-18T11:35:55;1.80;;;1.70;;
7517;SDS011;3800;48.922;9.444;2023-11-18T11:38:25;2.50;;;2.00;;
7517;SDS011;3800;48.922;9.444;2023-11-18T11:40:54;2.73;;;1.90;;
7517;SDS011;3800;48.922;9.444;2023-11-18T11:43:22;2.10;;;1.73;;
7517;SDS011;3800;48.922;9.444;2023-11-18T11:45:51;2.13;;;1.93;;
7517;SDS011;3800;48.922;9.444;2023-11-18T11:48:20;2.27;;;2.00;;
7517;SDS011;3800;48.922;9.444;2023-11-18T11:50:55;3.40;;;2.10;;
7517;SDS011;3800;48.922;9.444;2023-11-18T11:53:26;5.40;;;2.20;;
7517;SDS011;3800;48.922;9.444;2023-11-18T11:55:55;2.40;;;2.03;;
7517;SDS011;3800;48.922;9.444;2023-11-18T11:58:26;3.00;;;2.10;;
7517;SDS011;3800;48.922;9.444;2023-11-18T12:00:54;3.47;;;2.30;;
7517;SDS011;3800;48.922;9.444;2023-11-18T12:03:23;4.53;;;2.10;;
7517;SDS011;3800;48.922;9.444;2023-11-18T12:05:54;4.27;;;1.80;;
7517;SDS011;3800;48.922;9.444;2023-11-18T12:08:23;2.47;;;2.13;;
7517;SDS011;3800;48.922;9.444;2023-11-18T12:10:51;3.73;;;2.30;;
7517;SDS011;3800;48.922;9.444;2023-11-18T12:13:19;2.63;;;2.00;;
7517;SDS011;3800;48.922;9.444;2023-11-18T12:15:53;2.23;;;2.00;;
7517;SDS011;3800;48.922;9.444;2023-11-18T12:18:22;2.40;;;1.83;;
7517;SDS011;3800;48.922;9.444;2023-11-18T12:20:51;3.73;;;1.90;;
7517;SDS011;3800;48.922;9.444;2023-11-18T12:23:23;5.20;;;2.03;;
7517;SDS011;3800;48.922;9.444;2023-11-18T12:25:52;3.10;;;2.33;;
7517;SDS011;3800;48.922;9.444;2023-11-18T12:28:24;3.20;;;2.23;;
7517;SDS011;3800;48.922;9.444;2023-11-18T12:30:54;2.30;;;1.97;;
7517;SDS011;3800;48.922;9.444;2023-11-18T12:33:25;3.80;;;2.10;;
7517;SDS011;3800;48.922;9.444;2023-11-18T12:36:06;4.20;;;2.20;;
7517;SDS011;3800;48.922;9.444;2023-11-18T12:39:02;3.37;;;2.03;;
7517;SDS011;3800;48.922;9.444;2023-11-18T12:41:33;2.87;;;2.00;;
7517;SDS011;3800;48.922;9.444;2023-11-18T12:44:14;3.97;;;2.13;;
7517;SDS011;3800;48.922;9.444;2023-11-18T12:46:49;3.10;;;2.07;;
7517;SDS011;3800;48.922;9.444;2023-11-18T12:49:19;2.23;;;2.00;;
7517;SDS011;3800;48.922;9.444;2023-11-18T12:51:51;1.83;;;1.67;;
7517;SDS011;3800;48.922;9.444;2023-11-18T12:54:20;3.07;;;2.20;;
7517;SDS011;3800;48.922;9.444;2023-11-18T12:56:48;2.70;;;1.80;;
7517;SDS011;3800;48.922;9.444;2023-11-18T12:59:17;5.03;;;1.80;;
7517;SDS011;3800;48.922;9.444;2023-11-18T13:01:46;3.30;;;1.70;;
7517;SDS011;3800;48.922;9.444;2023-11-18T13:04:23;2.63;;;1.87;;
7517;SDS011;3800;48.922;9.444;2023-11-18T13:06:51;4.17;;;1.90;;
7517;SDS011;3800;48.922;9.444;2023-11-18T13:09:21;1.83;;;1.47;;
7517;SDS011;3800;48.922;9.444;2023-11-18T13:11:54;2.73;;;1.83;;
7517;SDS011;3800;48.922;9.444;2023-11-18T13:14:23;2.57;;;1.70;;
7517;SDS011;3800;48.922;9.444;2023-11-18T13:16:53;2.67;;;1.70;;
7517;SDS011;3800;48.922;9.444;2023-11-18T13:19:23;3.80;;;2.40;;
7517;SDS011;3800;48.922;9.444;2023-11-18T13:21:58;2.93;;;2.10;;
7517;SDS011;3800;48.922;9.444;2023-11-18T13:24:26;2.60;;;1.97;;
7517;SDS011;3800;48.922;9.444;2023-11-18T13:26:56;5.17;;;2.10;;
7517;SDS011;3800;48.922;9.444;2023-11-18T13:29:25;3.53;;;1.80;;
7517;SDS011;3800;48.922;9.444;2023-11-18T13:31:53;3.20;;;1.83;;
7517;SDS011;3800;48.922;9.444;2023-11-18T13:34:22;2.93;;;1.90;;
7517;SDS011;3800;48.922;9.444;2023-11-18T13:36:50;2.27;;;1.70;;
7517;SDS011;3800;48.922;9.444;2023-11-18T13:39:20;3.53;;;1.90;;
7517;SDS011;3800;48.922;9.444;2023-11-18T13:41:49;2.20;;;1.80;;
7517;SDS011;3800;48.922;9.444;2023-11-18T13:46:58;2.43;;;2.23;;
7517;SDS011;3800;48.922;9.444;2023-11-18T13:49:28;2.57;;;1.60;;
7517;SDS011;3800;48.922;9.444;2023-11-18T13:51:56;3.60;;;2.10;;
7517;SDS011;3800;48.922;9.444;2023-11-18T13:54:24;2.43;;;1.70;;
7517;SDS011;3800;48.922;9.444;2023-11-18T13:56:53;3.97;;;1.80;;
7517;SDS011;3800;48.922;9.444;2023-11-18T13:59:23;5.23;;;1.70;;
7517;SDS011;3800;48.922;9.444;2023-11-18T14:01:53;2.23;;;2.03;;
7517;SDS011;3800;48.922;9.444;2023-11-18T14:04:22;3.87;;;2.33;;
7517;SDS011;3800;48.922;9.444;2023-11-18T14:06:57;2.67;;;2.10;;
7517;SDS011;3800;48.922;9.444;2023-11-18T14:09:25;2.97;;;2.00;;
7517;SDS011;3800;48.922;9.444;2023-11-18T14:11:53;2.53;;;2.20;;
7517;SDS011;3800;48.922;9.444;2023-11-18T14:14:22;3.87;;;2.30;;
7517;SDS011;3800;48.922;9.444;2023-11-18T14:16:51;3.33;;;2.23;;
7517;SDS011;3800;48.922;9.444;2023-11-18T14:19:19;4.57;;;2.30;;
7517;SDS011;3800;48.922;9.444;2023-11-18T14:21:47;3.57;;;2.30;;
7517;SDS011;3800;48.922;9.444;2023-11-18T14:24:16;2.90;;;2.00;;
7517;SDS011;3800;48.922;9.444;2023-11-18T14:26:46;2.40;;;2.20;;
7517;SDS011;3800;48.922;9.444;2023-11-18T14:29:15;2.57;;;1.90;;
7517;SDS011;3800;48.922;9.444;2023-11-18T14:31:44;3.47;;;2.03;;
7517;SDS011;3800;48.922;9.444;2023-11-18T14:34:13;5.30;;;2.30;;
7517;SDS011;3800;48.922;9.444;2023-11-18T14:36:42;4.07;;;2.10;;
7517;SDS011;3800;48.922;9.444;2023-11-18T14:39:11;2.77;;;2.20;;
7517;SDS011;3800;48.922;9.444;2023-11-18T14:41:39;2.40;;;2.00;;
7517;SDS011;3800;48.922;9.444;2023-11-18T14:44:08;3.23;;;2.33;;
7517;SDS011;3800;48.922;9.444;2023-11-18T14:46:36;5.00;;;2.60;;
7517;SDS011;3800;48.922;9.444;2023-11-18T14:49:05;5.87;;;2.07;;
7517;SDS011;3800;48.922;9.444;2023-11-18T14:51:34;3.97;;;2.20;;
7517;SDS011;3800;48.922;9.444;2023-11-18T14:54:03;2.30;;;2.10;;
7517;SDS011;3800;48.922;9.444;2023-11-18T14:56:31;2.90;;;2.40;;
7517;SDS011;3800;48.922;9.444;2023-11-18T14:59:00;3.60;;;2.30;;
7517;SDS011;3800;48.922;9.444;2023-11-18T15:01:29;2.43;;;2.00;;
7517;SDS011;3800;48.922;9.444;2023-11-18T15:03:57;2.90;;;2.27;;
7517;SDS011;3800;48.922;9.444;2023-11-18T15:06:27;3.03;;;2.10;;
7517;SDS011;3800;48.922;9.444;2023-11-18T15:08:57;4.33;;;2.40;;
7517;SDS011;3800;48.922;9.444;2023-11-18T15:11:25;3.43;;;2.47;;
7517;SDS011;3800;48.922;9.444;2023-11-18T15:13:54;3.20;;;2.33;;
7517;SDS011;3800;48.922;9.444;2023-11-18T15:16:22;3.57;;;2.60;;
7517;SDS011;3800;48.922;9.444;2023-11-18T15:18:51;3.10;;;2.60;;
7517;SDS011;3800;48.922;9.444;2023-11-18T15:21:19;4.50;;;2.67;;
7517;SDS011;3800;48.922;9.444;2023-11-18T15:23:47;3.07;;;2.57;;
7517;SDS011;3800;48.922;9.444;2023-11-18T15:26:16;3.33;;;2.30;;
7517;SDS011;3800;48.922;9.444;2023-11-18T15:28:44;4.07;;;2.57;;
7517;SDS011;3800;48.922;9.444;2023-11-18T15:31:13;3.20;;;2.63;;
7517;SDS011;3800;48.922;9.444;2023-11-18T15:33:42;3.20;;;2.63;;